Douglas, Wyoming
Current Conditions -  °F | °C
As of 10:53 PM on Friday 19 Dec 2014 (Local Time) from KDGW Reporting Station
Clear Clear  
Wind Chill: 24°   Ceiling: Unl
Heat Index: 24°   Visibility: 10mi
Dew Point: 18°   Wind: 0mph
Humidity: 77%   Direction: NA
Pressure: 29.96"   Gusts: NA
Location:  42.76°N, 105.38°W
Report Text: KDGW 200553Z AUTO 00000KT 10SM CLR M04/M08 A2996 RMK AO2 SLP168 T10441078 10017 21050 53002
Loading
Personal Weather Stations






























Interactive Weather Map New forecast layout! Learn more

10-Day Weather Forecast

Advertisements
Track Severe Weather on mobile